»·PEaware :: UAL241 KPHX-KDEN

UAL241 :: KPHX-KDEN

FLIGHT INFORMATION

Flight Status: Arrived
Operator:
United Airlines
More flights by this operator :: More flights under this callsign
Pilot: Ryan H. (12491)
Aircraft: BOEING 737-800
(B738)
More flights by this aircraft type
Origin: KPHX Phoenix Sky Harbor Intl
United States
Destination: KDEN Denver Intl
United States
More flights between these airports :: More routes between these airports
Route: +YOTES5 YOOPR OURAY LDORA2
File this flight plan on PilotEdge
Remarks:
Altitude:
(Current/Filed)
27,000ft
Speed:
(Current/Filed)
450kts
Departed: 26-Sep-17 02:09 PM
Arrived: 26-Sep-17 03:21 PM
Distance/Time
Traveled:
522nm/1:12
Distance/Time
To Go:
Arrived

Flight Plot

Page will automatically refresh every two minutes.

Flight plan parsing failed; only flown route is shown


Map Options




Map Legend


Flown Route
Filed Route
Departure Airport
Arrival Airport
Navaid (VOR, NDB)
Fix

Horizontal Profiles

Position Reports

Time Latitude Longitude Heading Altitude Ground
Speed
26-Sep-17 13:59 33.433422 -112.007964 316 1144ft 0kts
26-Sep-17 14:00 33.433422 -112.007964 316 1144ft 0kts
26-Sep-17 14:01 33.433422 -112.007964 316 1144ft 0kts
26-Sep-17 14:02 33.433422 -112.007964 316 1144ft 0kts
26-Sep-17 14:03 33.433422 -112.007964 316 1144ft 0kts
26-Sep-17 14:04 33.433423 -112.007965 316 1144ft 0kts
26-Sep-17 14:05 33.433424 -112.007966 316 1144ft 0kts
26-Sep-17 14:06 33.433425 -112.007968 316 1144ft 0kts
26-Sep-17 14:07 33.433488 -112.007218 140 1144ft 11kts
26-Sep-17 14:08 33.433883 -112.007563 191 1144ft 0kts
26-Sep-17 14:09 33.432842 -112.005563 91 1144ft 12kts
26-Sep-17 14:10 33.432116 -112.000402 90 1144ft 22kts
26-Sep-17 14:11 33.431944 -111.993581 154 1144ft 0kts
26-Sep-17 14:12 33.431934 -111.993575 154 1144ft 2kts
26-Sep-17 14:13 33.431057 -112.001159 268 1144ft 121kts
26-Sep-17 14:14 33.438216 -112.060510 280 4338ft 205kts
26-Sep-17 14:15 33.476470 -112.119609 322 8044ft 264kts
26-Sep-17 14:16 33.541460 -112.176438 346 11728ft 322kts
26-Sep-17 14:17 33.632078 -112.149535 46 14897ft 375kts
26-Sep-17 14:18 33.708439 -112.052706 47 18030ft 414kts
26-Sep-17 14:19 33.785700 -111.946407 55 21356ft 424kts
26-Sep-17 14:20 33.856659 -111.830751 53 24209ft 433kts
26-Sep-17 14:21 33.929642 -111.715427 53 26732ft 435kts
26-Sep-17 14:22 34.008380 -111.596520 41 26976ft 478kts
26-Sep-17 14:23 34.122689 -111.507544 32 27027ft 492kts
26-Sep-17 14:24 34.237857 -111.418279 32 27048ft 492kts
26-Sep-17 14:25 34.350583 -111.324657 44 27056ft 493kts
26-Sep-17 14:26 34.447794 -111.207211 45 27050ft 493kts
26-Sep-17 14:27 34.611235 -111.011962 45 27044ft 493kts
26-Sep-17 14:28 35.003079 -110.542974 45 27025ft 495kts
26-Sep-17 14:29 35.261547 -110.232635 44 27043ft 494kts
26-Sep-17 14:30 35.359561 -110.115065 45 27049ft 494kts
26-Sep-17 14:31 35.441046 -110.016817 45 27045ft 493kts
26-Sep-17 14:32 35.539375 -109.898303 45 27056ft 494kts
26-Sep-17 14:33 35.637417 -109.779961 45 27070ft 495kts
26-Sep-17 14:34 35.751803 -109.641717 45 27076ft 495kts
26-Sep-17 14:35 35.833832 -109.542479 45 27079ft 495kts
26-Sep-17 14:36 35.931890 -109.423720 45 27087ft 495kts
26-Sep-17 14:37 36.030065 -109.304689 45 27087ft 494kts
26-Sep-17 14:38 36.128424 -109.185296 45 27087ft 494kts
26-Sep-17 14:39 36.226482 -109.066130 45 27087ft 495kts
26-Sep-17 14:40 36.324783 -108.946580 45 27084ft 496kts
26-Sep-17 14:41 36.423560 -108.826258 45 27081ft 496kts
26-Sep-17 14:42 36.521994 -108.706224 45 27079ft 496kts
26-Sep-17 14:43 36.620879 -108.585494 45 27069ft 501kts
26-Sep-17 14:44 36.720795 -108.463372 45 27061ft 502kts
26-Sep-17 14:45 36.820442 -108.341428 45 27059ft 502kts
26-Sep-17 14:46 36.920423 -108.218929 45 27065ft 503kts
26-Sep-17 14:47 37.020239 -108.096497 45 27092ft 503kts
26-Sep-17 14:48 37.120436 -107.973420 45 27126ft 507kts
26-Sep-17 14:49 37.221113 -107.849634 45 27146ft 507kts
26-Sep-17 14:50 37.321734 -107.725747 45 27164ft 507kts
26-Sep-17 14:51 37.422647 -107.601336 45 27204ft 507kts
26-Sep-17 14:52 37.523244 -107.477199 45 27200ft 505kts
26-Sep-17 14:53 37.623072 -107.353841 45 27209ft 503kts
26-Sep-17 14:54 37.723276 -107.229873 45 27213ft 503kts
26-Sep-17 14:55 37.823198 -107.106100 45 27307ft 504kts
26-Sep-17 14:56 37.923472 -106.981747 45 27303ft 505kts
26-Sep-17 14:57 38.024087 -106.856825 45 27263ft 504kts
26-Sep-17 14:58 38.124302 -106.732260 45 27291ft 505kts
26-Sep-17 14:59 38.225035 -106.606930 45 27315ft 506kts
26-Sep-17 15:00 38.325849 -106.481935 45 27368ft 506kts
26-Sep-17 15:01 38.426640 -106.356795 45 27475ft 507kts
26-Sep-17 15:02 38.528064 -106.230840 45 27489ft 508kts
26-Sep-17 15:03 38.628544 -106.104939 45 26372ft 504kts
26-Sep-17 15:04 38.727662 -105.980273 45 23590ft 484kts
26-Sep-17 15:05 38.822449 -105.860685 44 21158ft 468kts
26-Sep-17 15:06 38.913046 -105.745641 45 18899ft 450kts
26-Sep-17 15:07 38.998813 -105.636069 44 17489ft 411kts
26-Sep-17 15:08 39.074198 -105.539760 44 17290ft 354kts
26-Sep-17 15:09 39.145721 -105.448375 43 17256ft 378kts
26-Sep-17 15:10 39.221175 -105.351652 44 17198ft 362kts
26-Sep-17 15:11 39.269054 -105.245587 78 17185ft 342kts
26-Sep-17 15:12 39.291138 -105.126439 78 16894ft 342kts
26-Sep-17 15:13 39.313358 -105.008043 78 15574ft 333kts
26-Sep-17 15:14 39.334376 -104.895410 77 14320ft 299kts
26-Sep-17 15:15 39.357173 -104.800092 72 13257ft 266kts
26-Sep-17 15:16 39.390607 -104.718969 24 12136ft 257kts
26-Sep-17 15:17 39.442240 -104.660813 42 12017ft 262kts
26-Sep-17 15:18 39.509619 -104.661428 346 11852ft 252kts
26-Sep-17 15:19 39.577764 -104.663445 359 10480ft 229kts
26-Sep-17 15:20 39.638026 -104.662735 0 9258ft 212kts
26-Sep-17 15:21 39.696177 -104.662070 1 8094ft 205kts
26-Sep-17 15:22 39.745346 -104.661505 2 7103ft 156kts
26-Sep-17 15:23 39.789983 -104.660989 2 6252ft 160kts
26-Sep-17 15:24 39.833962 -104.660499 2 5442ft 140kts
26-Sep-17 15:25 39.849621 -104.662021 333 5440ft 0kts
26-Sep-17 15:26 39.852474 -104.662382 0 5440ft 17kts
26-Sep-17 15:27 39.856828 -104.664207 270 5440ft 16kts
26-Sep-17 15:28 39.856662 -104.670649 270 5440ft 23kts
26-Sep-17 15:29 39.857054 -104.672908 16 5440ft 6kts
26-Sep-17 15:30 39.858109 -104.672847 0 5440ft 1kts
26-Sep-17 15:31 39.858152 -104.672847 359 5440ft 0kts
26-Sep-17 15:32 39.858152 -104.672847 359 5440ft 0kts
26-Sep-17 15:33 39.858152 -104.672847 359 5440ft 0kts

Navigation Log

Ident Type
Flight plan parsing failed, navigation log unavailable